Shache, China
Current Conditions -  °F | °C
As of 6:00 AM on Thursday 29 Jan 2015 (Local Time) from ZWSH Reporting Station
Light Snow Light Snow  
Wind Chill: 15°   Ceiling: 2500
Heat Index: 21°   Visibility: 1.5mi
Dew Point: 21°   Wind: 4mph
Humidity: 100%   Direction: 70°ENE
Pressure: 30.24"   Gusts: NA
Location:  38.42°N, 77.25°E
Report Text: ZWSH 282200Z 07002MPS 2500 -SN BR OVC025 M06/M06 Q1024 NOSIG
Loading
Personal Weather Stations






























Interactive Weather Map New forecast layout! Learn more

10-Day Weather Forecast

Advertisements
Track Severe Weather on mobile